sensor_id;sensor_type;location;lat;lon;timestamp;P1;durP1;ratioP1;P2;durP2;ratioP2
67715;SDS011;54508;43.238;25.306;2023-09-19T00:00:20;1.20;;;1.08;;
67715;SDS011;54508;43.238;25.306;2023-09-19T00:02:53;1.13;;;0.95;;
67715;SDS011;54508;43.238;25.306;2023-09-19T00:05:19;1.00;;;0.90;;
67715;SDS011;54508;43.238;25.306;2023-09-19T00:07:49;1.05;;;0.95;;
67715;SDS011;54508;43.238;25.306;2023-09-19T00:10:22;1.10;;;1.00;;
67715;SDS011;54508;43.238;25.306;2023-09-19T00:12:50;1.23;;;1.13;;
67715;SDS011;54508;43.238;25.306;2023-09-19T00:15:17;1.30;;;1.20;;
67715;SDS011;54508;43.238;25.306;2023-09-19T00:17:42;1.50;;;1.40;;
67715;SDS011;54508;43.238;25.306;2023-09-19T00:20:08;1.20;;;1.10;;
67715;SDS011;54508;43.238;25.306;2023-09-19T00:22:41;1.30;;;1.20;;
67715;SDS011;54508;43.238;25.306;2023-09-19T00:25:07;1.40;;;1.30;;
67715;SDS011;54508;43.238;25.306;2023-09-19T00:27:34;1.20;;;1.10;;
67715;SDS011;54508;43.238;25.306;2023-09-19T00:30:08;1.33;;;1.20;;
67715;SDS011;54508;43.238;25.306;2023-09-19T00:32:45;2.75;;;1.40;;
67715;SDS011;54508;43.238;25.306;2023-09-19T00:35:12;1.30;;;1.20;;
67715;SDS011;54508;43.238;25.306;2023-09-19T00:37:40;1.65;;;1.13;;
67715;SDS011;54508;43.238;25.306;2023-09-19T00:40:06;1.30;;;1.10;;
67715;SDS011;54508;43.238;25.306;2023-09-19T00:42:36;1.58;;;1.48;;
67715;SDS011;54508;43.238;25.306;2023-09-19T00:45:03;1.40;;;1.20;;
67715;SDS011;54508;43.238;25.306;2023-09-19T00:47:30;1.33;;;1.20;;
67715;SDS011;54508;43.238;25.306;2023-09-19T00:49:55;1.15;;;1.05;;
67715;SDS011;54508;43.238;25.306;2023-09-19T00:52:21;1.20;;;1.10;;
67715;SDS011;54508;43.238;25.306;2023-09-19T00:54:48;1.48;;;1.30;;
67715;SDS011;54508;43.238;25.306;2023-09-19T00:57:14;1.60;;;1.25;;
67715;SDS011;54508;43.238;25.306;2023-09-19T00:59:40;1.33;;;1.17;;
67715;SDS011;54508;43.238;25.306;2023-09-19T01:02:07;1.35;;;1.20;;
67715;SDS011;54508;43.238;25.306;2023-09-19T01:04:33;1.23;;;1.13;;
67715;SDS011;54508;43.238;25.306;2023-09-19T01:06:59;1.20;;;1.10;;
67715;SDS011;54508;43.238;25.306;2023-09-19T01:09:24;1.50;;;1.40;;
67715;SDS011;54508;43.238;25.306;2023-09-19T01:11:50;1.33;;;1.23;;
67715;SDS011;54508;43.238;25.306;2023-09-19T01:14:31;1.35;;;1.20;;
67715;SDS011;54508;43.238;25.306;2023-09-19T01:17:05;1.30;;;1.10;;
67715;SDS011;54508;43.238;25.306;2023-09-19T01:19:44;1.20;;;1.10;;
67715;SDS011;54508;43.238;25.306;2023-09-19T01:22:56;1.10;;;0.90;;
67715;SDS011;54508;43.238;25.306;2023-09-19T01:31:11;2.42;;;1.10;;
67715;SDS011;54508;43.238;25.306;2023-09-19T01:33:56;1.30;;;1.20;;
67715;SDS011;54508;43.238;25.306;2023-09-19T01:36:29;1.60;;;1.10;;
67715;SDS011;54508;43.238;25.306;2023-09-19T01:38:59;1.10;;;1.00;;
67715;SDS011;54508;43.238;25.306;2023-09-19T01:44:38;1.48;;;1.30;;
67715;SDS011;54508;43.238;25.306;2023-09-19T01:47:12;1.43;;;1.20;;
67715;SDS011;54508;43.238;25.306;2023-09-19T01:53:30;1.25;;;1.15;;
67715;SDS011;54508;43.238;25.306;2023-09-19T01:55:29;1.23;;;1.00;;
67715;SDS011;54508;43.238;25.306;2023-09-19T01:58:08;1.45;;;1.23;;
67715;SDS011;54508;43.238;25.306;2023-09-19T02:00:41;1.20;;;1.10;;
67715;SDS011;54508;43.238;25.306;2023-09-19T02:03:08;1.30;;;1.13;;
67715;SDS011;54508;43.238;25.306;2023-09-19T02:05:34;1.30;;;1.20;;
67715;SDS011;54508;43.238;25.306;2023-09-19T02:08:00;1.50;;;1.40;;
67715;SDS011;54508;43.238;25.306;2023-09-19T02:10:25;1.15;;;1.05;;
67715;SDS011;54508;43.238;25.306;2023-09-19T02:12:51;1.20;;;1.10;;
67715;SDS011;54508;43.238;25.306;2023-09-19T02:15:16;1.40;;;1.30;;
67715;SDS011;54508;43.238;25.306;2023-09-19T02:17:45;1.20;;;1.10;;
67715;SDS011;54508;43.238;25.306;2023-09-19T02:20:11;1.30;;;1.20;;
67715;SDS011;54508;43.238;25.306;2023-09-19T02:22:43;1.52;;;1.27;;
67715;SDS011;54508;43.238;25.306;2023-09-19T02:25:09;1.58;;;1.38;;
67715;SDS011;54508;43.238;25.306;2023-09-19T02:27:35;2.33;;;1.40;;
67715;SDS011;54508;43.238;25.306;2023-09-19T02:30:02;1.02;;;0.93;;
67715;SDS011;54508;43.238;25.306;2023-09-19T02:32:28;1.55;;;1.33;;
67715;SDS011;54508;43.238;25.306;2023-09-19T02:34:55;1.40;;;1.25;;
67715;SDS011;54508;43.238;25.306;2023-09-19T02:37:21;1.60;;;1.43;;
67715;SDS011;54508;43.238;25.306;2023-09-19T02:39:46;1.73;;;1.40;;
67715;SDS011;54508;43.238;25.306;2023-09-19T02:42:12;1.55;;;1.40;;
67715;SDS011;54508;43.238;25.306;2023-09-19T02:44:37;1.70;;;1.50;;
67715;SDS011;54508;43.238;25.306;2023-09-19T02:47:03;1.70;;;1.50;;
67715;SDS011;54508;43.238;25.306;2023-09-19T02:49:29;2.00;;;1.70;;
67715;SDS011;54508;43.238;25.306;2023-09-19T02:51:54;1.63;;;1.53;;
67715;SDS011;54508;43.238;25.306;2023-09-19T02:54:20;1.52;;;1.20;;
67715;SDS011;54508;43.238;25.306;2023-09-19T02:56:46;1.60;;;1.30;;
67715;SDS011;54508;43.238;25.306;2023-09-19T02:59:12;1.55;;;1.30;;
67715;SDS011;54508;43.238;25.306;2023-09-19T03:01:37;1.60;;;1.50;;
67715;SDS011;54508;43.238;25.306;2023-09-19T03:04:06;1.70;;;1.50;;
67715;SDS011;54508;43.238;25.306;2023-09-19T03:06:44;2.05;;;1.60;;
67715;SDS011;54508;43.238;25.306;2023-09-19T03:09:10;1.55;;;1.42;;
67715;SDS011;54508;43.238;25.306;2023-09-19T03:11:36;1.42;;;1.33;;
67715;SDS011;54508;43.238;25.306;2023-09-19T03:14:02;1.75;;;1.55;;
67715;SDS011;54508;43.238;25.306;2023-09-19T03:16:29;1.33;;;1.23;;
67715;SDS011;54508;43.238;25.306;2023-09-19T03:18:55;1.67;;;1.27;;
67715;SDS011;54508;43.238;25.306;2023-09-19T03:21:20;1.80;;;1.53;;
67715;SDS011;54508;43.238;25.306;2023-09-19T03:23:46;3.53;;;1.30;;
67715;SDS011;54508;43.238;25.306;2023-09-19T03:26:12;1.40;;;1.30;;
67715;SDS011;54508;43.238;25.306;2023-09-19T03:28:39;3.63;;;1.30;;
67715;SDS011;54508;43.238;25.306;2023-09-19T03:31:06;1.83;;;1.50;;
67715;SDS011;54508;43.238;25.306;2023-09-19T03:33:32;1.63;;;1.43;;
67715;SDS011;54508;43.238;25.306;2023-09-19T03:35:58;2.92;;;1.48;;
67715;SDS011;54508;43.238;25.306;2023-09-19T03:38:26;1.85;;;1.35;;
67715;SDS011;54508;43.238;25.306;2023-09-19T03:40:52;1.77;;;1.45;;
67715;SDS011;54508;43.238;25.306;2023-09-19T03:43:17;2.70;;;1.30;;
67715;SDS011;54508;43.238;25.306;2023-09-19T03:45:43;1.90;;;1.37;;
67715;SDS011;54508;43.238;25.306;2023-09-19T03:48:11;1.90;;;1.40;;
67715;SDS011;54508;43.238;25.306;2023-09-19T03:50:37;1.53;;;1.40;;
67715;SDS011;54508;43.238;25.306;2023-09-19T03:53:02;1.90;;;1.35;;
67715;SDS011;54508;43.238;25.306;2023-09-19T03:55:28;1.53;;;1.20;;
67715;SDS011;54508;43.238;25.306;2023-09-19T03:57:55;3.35;;;1.60;;
67715;SDS011;54508;43.238;25.306;2023-09-19T04:00:21;1.80;;;1.35;;
67715;SDS011;54508;43.238;25.306;2023-09-19T04:02:49;1.50;;;1.30;;
67715;SDS011;54508;43.238;25.306;2023-09-19T04:05:17;1.30;;;1.20;;
67715;SDS011;54508;43.238;25.306;2023-09-19T04:07:42;2.50;;;1.25;;
67715;SDS011;54508;43.238;25.306;2023-09-19T04:10:08;1.50;;;1.40;;
67715;SDS011;54508;43.238;25.306;2023-09-19T04:12:36;2.15;;;1.30;;
67715;SDS011;54508;43.238;25.306;2023-09-19T04:15:02;1.83;;;1.30;;
67715;SDS011;54508;43.238;25.306;2023-09-19T04:17:28;2.60;;;1.43;;
67715;SDS011;54508;43.238;25.306;2023-09-19T04:19:53;2.03;;;1.20;;
67715;SDS011;54508;43.238;25.306;2023-09-19T04:22:19;1.90;;;1.33;;
67715;SDS011;54508;43.238;25.306;2023-09-19T04:24:44;1.30;;;1.20;;
67715;SDS011;54508;43.238;25.306;2023-09-19T04:27:10;1.57;;;1.30;;
67715;SDS011;54508;43.238;25.306;2023-09-19T04:29:37;1.70;;;1.23;;
67715;SDS011;54508;43.238;25.306;2023-09-19T04:32:09;1.80;;;1.33;;
67715;SDS011;54508;43.238;25.306;2023-09-19T04:34:34;1.42;;;1.30;;
67715;SDS011;54508;43.238;25.306;2023-09-19T04:37:00;1.55;;;1.45;;
67715;SDS011;54508;43.238;25.306;2023-09-19T04:39:27;1.60;;;1.50;;
67715;SDS011;54508;43.238;25.306;2023-09-19T04:41:54;1.40;;;1.27;;
67715;SDS011;54508;43.238;25.306;2023-09-19T04:44:20;1.30;;;1.20;;
67715;SDS011;54508;43.238;25.306;2023-09-19T04:46:46;1.30;;;1.20;;
67715;SDS011;54508;43.238;25.306;2023-09-19T04:49:11;1.50;;;1.40;;
67715;SDS011;54508;43.238;25.306;2023-09-19T04:51:37;1.40;;;1.25;;
67715;SDS011;54508;43.238;25.306;2023-09-19T04:54:03;1.50;;;1.40;;
67715;SDS011;54508;43.238;25.306;2023-09-19T04:56:28;1.52;;;1.42;;
67715;SDS011;54508;43.238;25.306;2023-09-19T04:58:54;1.40;;;1.30;;
67715;SDS011;54508;43.238;25.306;2023-09-19T05:01:19;5.20;;;4.00;;
67715;SDS011;54508;43.238;25.306;2023-09-19T05:03:48;5.32;;;4.80;;
67715;SDS011;54508;43.238;25.306;2023-09-19T05:06:20;10.80;;;4.10;;
67715;SDS011;54508;43.238;25.306;2023-09-19T05:08:46;9.00;;;4.28;;
67715;SDS011;54508;43.238;25.306;2023-09-19T05:11:16;9.10;;;4.65;;
67715;SDS011;54508;43.238;25.306;2023-09-19T05:13:42;5.50;;;4.40;;
67715;SDS011;54508;43.238;25.306;2023-09-19T05:16:08;7.63;;;4.43;;
67715;SDS011;54508;43.238;25.306;2023-09-19T05:18:35;7.03;;;4.20;;
67715;SDS011;54508;43.238;25.306;2023-09-19T05:21:04;6.72;;;4.20;;
67715;SDS011;54508;43.238;25.306;2023-09-19T05:23:29;4.68;;;3.75;;
67715;SDS011;54508;43.238;25.306;2023-09-19T05:25:56;5.78;;;4.40;;
67715;SDS011;54508;43.238;25.306;2023-09-19T05:28:24;7.07;;;4.00;;
67715;SDS011;54508;43.238;25.306;2023-09-19T05:30:50;6.50;;;4.07;;
67715;SDS011;54508;43.238;25.306;2023-09-19T05:33:16;7.97;;;3.92;;
67715;SDS011;54508;43.238;25.306;2023-09-19T05:35:43;9.07;;;4.13;;
67715;SDS011;54508;43.238;25.306;2023-09-19T05:38:08;6.18;;;4.60;;
67715;SDS011;54508;43.238;25.306;2023-09-19T05:40:35;10.45;;;4.55;;
67715;SDS011;54508;43.238;25.306;2023-09-19T05:43:00;5.33;;;4.33;;
67715;SDS011;54508;43.238;25.306;2023-09-19T05:45:27;8.15;;;4.80;;
67715;SDS011;54508;43.238;25.306;2023-09-19T05:47:53;9.33;;;4.60;;
67715;SDS011;54508;43.238;25.306;2023-09-19T05:50:29;10.02;;;4.50;;
67715;SDS011;54508;43.238;25.306;2023-09-19T05:52:54;7.83;;;4.83;;
67715;SDS011;54508;43.238;25.306;2023-09-19T05:55:21;6.70;;;4.47;;
67715;SDS011;54508;43.238;25.306;2023-09-19T05:57:53;10.60;;;4.68;;
67715;SDS011;54508;43.238;25.306;2023-09-19T06:00:19;6.97;;;4.93;;
67715;SDS011;54508;43.238;25.306;2023-09-19T06:02:49;5.88;;;4.38;;
67715;SDS011;54508;43.238;25.306;2023-09-19T06:05:21;6.70;;;5.50;;
67715;SDS011;54508;43.238;25.306;2023-09-19T06:07:46;11.15;;;4.70;;
67715;SDS011;54508;43.238;25.306;2023-09-19T06:10:12;8.80;;;4.60;;
67715;SDS011;54508;43.238;25.306;2023-09-19T06:12:41;8.13;;;4.68;;
67715;SDS011;54508;43.238;25.306;2023-09-19T06:15:10;6.20;;;4.38;;
67715;SDS011;54508;43.238;25.306;2023-09-19T06:17:50;10.80;;;5.53;;
67715;SDS011;54508;43.238;25.306;2023-09-19T06:20:16;8.73;;;5.10;;
67715;SDS011;54508;43.238;25.306;2023-09-19T06:22:42;6.40;;;4.57;;
67715;SDS011;54508;43.238;25.306;2023-09-19T06:25:13;5.80;;;4.07;;
67715;SDS011;54508;43.238;25.306;2023-09-19T06:27:48;5.05;;;4.43;;
67715;SDS011;54508;43.238;25.306;2023-09-19T06:30:17;7.93;;;4.10;;
67715;SDS011;54508;43.238;25.306;2023-09-19T06:32:42;8.63;;;4.72;;
67715;SDS011;54508;43.238;25.306;2023-09-19T06:35:12;7.32;;;4.72;;
67715;SDS011;54508;43.238;25.306;2023-09-19T06:37:38;5.60;;;3.90;;
67715;SDS011;54508;43.238;25.306;2023-09-19T06:40:13;8.90;;;4.47;;
67715;SDS011;54508;43.238;25.306;2023-09-19T06:42:42;20.30;;;11.00;;
67715;SDS011;54508;43.238;25.306;2023-09-19T06:45:13;20.35;;;17.50;;
67715;SDS011;54508;43.238;25.306;2023-09-19T06:47:46;90.05;;;69.40;;
67715;SDS011;54508;43.238;25.306;2023-09-19T06:50:16;25.37;;;16.13;;
67715;SDS011;54508;43.238;25.306;2023-09-19T06:52:47;16.13;;;8.48;;
67715;SDS011;54508;43.238;25.306;2023-09-19T06:55:15;12.75;;;6.43;;
67715;SDS011;54508;43.238;25.306;2023-09-19T06:57:45;11.73;;;5.97;;
67715;SDS011;54508;43.238;25.306;2023-09-19T07:00:11;15.95;;;7.07;;
67715;SDS011;54508;43.238;25.306;2023-09-19T07:03:04;11.70;;;7.50;;
67715;SDS011;54508;43.238;25.306;2023-09-19T07:05:33;13.57;;;7.88;;
67715;SDS011;54508;43.238;25.306;2023-09-19T07:08:02;10.80;;;7.38;;
67715;SDS011;54508;43.238;25.306;2023-09-19T07:10:28;13.32;;;7.53;;
67715;SDS011;54508;43.238;25.306;2023-09-19T07:13:04;10.63;;;6.55;;
67715;SDS011;54508;43.238;25.306;2023-09-19T07:15:37;10.80;;;6.78;;
67715;SDS011;54508;43.238;25.306;2023-09-19T07:18:11;13.45;;;7.07;;
67715;SDS011;54508;43.238;25.306;2023-09-19T07:20:37;15.27;;;6.47;;
67715;SDS011;54508;43.238;25.306;2023-09-19T07:23:03;10.77;;;6.27;;
67715;SDS011;54508;43.238;25.306;2023-09-19T07:25:29;13.70;;;6.38;;
67715;SDS011;54508;43.238;25.306;2023-09-19T07:27:55;8.60;;;6.03;;
67715;SDS011;54508;43.238;25.306;2023-09-19T07:30:21;8.60;;;5.88;;
67715;SDS011;54508;43.238;25.306;2023-09-19T07:32:47;9.20;;;5.15;;
67715;SDS011;54508;43.238;25.306;2023-09-19T07:35:12;12.40;;;5.88;;
67715;SDS011;54508;43.238;25.306;2023-09-19T07:37:38;18.52;;;7.18;;
67715;SDS011;54508;43.238;25.306;2023-09-19T07:40:04;15.23;;;6.50;;
67715;SDS011;54508;43.238;25.306;2023-09-19T07:42:34;6.72;;;5.30;;
67715;SDS011;54508;43.238;25.306;2023-09-19T07:45:02;8.77;;;5.57;;
67715;SDS011;54508;43.238;25.306;2023-09-19T07:47:28;15.57;;;5.43;;
67715;SDS011;54508;43.238;25.306;2023-09-19T07:49:55;7.35;;;4.78;;
67715;SDS011;54508;43.238;25.306;2023-09-19T07:52:20;5.70;;;4.53;;
67715;SDS011;54508;43.238;25.306;2023-09-19T07:54:47;9.73;;;4.77;;
67715;SDS011;54508;43.238;25.306;2023-09-19T07:57:14;5.13;;;4.60;;
67715;SDS011;54508;43.238;25.306;2023-09-19T07:59:41;5.25;;;4.60;;
67715;SDS011;54508;43.238;25.306;2023-09-19T08:02:07;10.48;;;4.57;;
67715;SDS011;54508;43.238;25.306;2023-09-19T08:04:43;6.47;;;4.00;;
67715;SDS011;54508;43.238;25.306;2023-09-19T08:07:11;4.80;;;4.17;;
67715;SDS011;54508;43.238;25.306;2023-09-19T08:09:38;5.53;;;3.90;;
67715;SDS011;54508;43.238;25.306;2023-09-19T08:12:04;5.38;;;3.97;;
67715;SDS011;54508;43.238;25.306;2023-09-19T08:14:30;7.47;;;4.15;;
67715;SDS011;54508;43.238;25.306;2023-09-19T08:16:56;4.70;;;3.78;;
67715;SDS011;54508;43.238;25.306;2023-09-19T08:19:23;6.28;;;3.50;;
67715;SDS011;54508;43.238;25.306;2023-09-19T08:21:54;7.82;;;3.80;;
67715;SDS011;54508;43.238;25.306;2023-09-19T08:24:20;6.50;;;3.55;;
67715;SDS011;54508;43.238;25.306;2023-09-19T08:29:37;3.60;;;3.20;;
67715;SDS011;54508;43.238;25.306;2023-09-19T08:32:03;8.48;;;3.22;;
67715;SDS011;54508;43.238;25.306;2023-09-19T08:34:29;3.13;;;2.83;;
67715;SDS011;54508;43.238;25.306;2023-09-19T08:36:56;3.58;;;3.08;;
67715;SDS011;54508;43.238;25.306;2023-09-19T08:39:22;6.28;;;3.33;;
67715;SDS011;54508;43.238;25.306;2023-09-19T08:41:48;5.07;;;3.10;;
67715;SDS011;54508;43.238;25.306;2023-09-19T08:44:14;3.63;;;3.08;;
67715;SDS011;54508;43.238;25.306;2023-09-19T08:46:41;8.40;;;3.08;;
67715;SDS011;54508;43.238;25.306;2023-09-19T08:49:17;10.07;;;3.13;;
67715;SDS011;54508;43.238;25.306;2023-09-19T08:51:51;4.40;;;2.60;;
67715;SDS011;54508;43.238;25.306;2023-09-19T08:54:21;4.78;;;2.60;;
67715;SDS011;54508;43.238;25.306;2023-09-19T08:56:51;4.55;;;2.88;;
67715;SDS011;54508;43.238;25.306;2023-09-19T08:59:21;5.32;;;2.70;;
67715;SDS011;54508;43.238;25.306;2023-09-19T09:01:49;5.70;;;2.60;;
67715;SDS011;54508;43.238;25.306;2023-09-19T09:04:18;9.20;;;3.28;;
67715;SDS011;54508;43.238;25.306;2023-09-19T09:06:44;3.87;;;2.90;;
67715;SDS011;54508;43.238;25.306;2023-09-19T09:09:10;4.35;;;2.80;;
67715;SDS011;54508;43.238;25.306;2023-09-19T09:11:35;4.35;;;2.78;;
67715;SDS011;54508;43.238;25.306;2023-09-19T09:14:05;4.80;;;2.95;;
67715;SDS011;54508;43.238;25.306;2023-09-19T09:16:32;5.55;;;2.72;;
67715;SDS011;54508;43.238;25.306;2023-09-19T09:19:01;4.20;;;2.43;;
67715;SDS011;54508;43.238;25.306;2023-09-19T09:21:29;5.93;;;2.95;;
67715;SDS011;54508;43.238;25.306;2023-09-19T09:23:54;4.20;;;2.60;;
67715;SDS011;54508;43.238;25.306;2023-09-19T09:27:02;2.67;;;2.40;;
67715;SDS011;54508;43.238;25.306;2023-09-19T09:29:08;3.20;;;2.40;;
67715;SDS011;54508;43.238;25.306;2023-09-19T09:31:34;4.07;;;2.10;;
67715;SDS011;54508;43.238;25.306;2023-09-19T09:33:59;7.23;;;2.53;;
67715;SDS011;54508;43.238;25.306;2023-09-19T09:36:35;2.50;;;2.03;;
67715;SDS011;54508;43.238;25.306;2023-09-19T09:39:01;3.63;;;2.20;;
67715;SDS011;54508;43.238;25.306;2023-09-19T09:41:41;2.55;;;2.20;;
67715;SDS011;54508;43.238;25.306;2023-09-19T09:44:13;4.90;;;2.15;;
67715;SDS011;54508;43.238;25.306;2023-09-19T09:46:43;4.47;;;3.40;;
67715;SDS011;54508;43.238;25.306;2023-09-19T09:49:24;2.97;;;2.70;;
67715;SDS011;54508;43.238;25.306;2023-09-19T09:52:03;4.78;;;3.28;;
67715;SDS011;54508;43.238;25.306;2023-09-19T09:55:04;4.10;;;3.35;;
67715;SDS011;54508;43.238;25.306;2023-09-19T09:57:32;6.88;;;2.53;;
67715;SDS011;54508;43.238;25.306;2023-09-19T09:59:59;4.75;;;3.42;;
67715;SDS011;54508;43.238;25.306;2023-09-19T10:02:41;7.80;;;3.00;;
67715;SDS011;54508;43.238;25.306;2023-09-19T10:05:14;6.78;;;2.90;;
67715;SDS011;54508;43.238;25.306;2023-09-19T10:07:46;3.88;;;3.22;;
67715;SDS011;54508;43.238;25.306;2023-09-19T10:10:37;3.72;;;2.50;;
67715;SDS011;54508;43.238;25.306;2023-09-19T10:13:08;3.25;;;2.90;;
67715;SDS011;54508;43.238;25.306;2023-09-19T10:15:39;4.03;;;2.50;;
67715;SDS011;54508;43.238;25.306;2023-09-19T10:18:11;3.60;;;2.65;;
67715;SDS011;54508;43.238;25.306;2023-09-19T10:20:42;5.20;;;2.42;;
67715;SDS011;54508;43.238;25.306;2023-09-19T10:23:11;3.95;;;2.30;;
67715;SDS011;54508;43.238;25.306;2023-09-19T10:25:40;2.47;;;2.28;;
67715;SDS011;54508;43.238;25.306;2023-09-19T10:28:07;19.10;;;2.67;;
67715;SDS011;54508;43.238;25.306;2023-09-19T10:30:42;6.07;;;3.13;;
67715;SDS011;54508;43.238;25.306;2023-09-19T10:33:11;4.55;;;2.50;;
67715;SDS011;54508;43.238;25.306;2023-09-19T10:35:38;5.05;;;2.97;;
67715;SDS011;54508;43.238;25.306;2023-09-19T10:38:08;5.82;;;2.63;;
67715;SDS011;54508;43.238;25.306;2023-09-19T10:40:35;3.87;;;2.30;;
67715;SDS011;54508;43.238;25.306;2023-09-19T10:43:05;5.55;;;2.67;;
67715;SDS011;54508;43.238;25.306;2023-09-19T10:45:31;3.67;;;2.50;;
67715;SDS011;54508;43.238;25.306;2023-09-19T10:48:01;3.88;;;2.42;;
67715;SDS011;54508;43.238;25.306;2023-09-19T10:50:33;2.72;;;2.30;;
67715;SDS011;54508;43.238;25.306;2023-09-19T10:53:24;11.40;;;2.20;;
67715;SDS011;54508;43.238;25.306;2023-09-19T10:55:55;5.35;;;2.55;;
67715;SDS011;54508;43.238;25.306;2023-09-19T10:58:28;2.38;;;2.13;;
67715;SDS011;54508;43.238;25.306;2023-09-19T11:00:57;6.13;;;2.28;;
67715;SDS011;54508;43.238;25.306;2023-09-19T11:03:40;2.78;;;2.00;;
67715;SDS011;54508;43.238;25.306;2023-09-19T11:06:10;7.03;;;1.80;;
67715;SDS011;54508;43.238;25.306;2023-09-19T11:11:41;3.15;;;2.03;;
67715;SDS011;54508;43.238;25.306;2023-09-19T11:25:41;3.05;;;1.75;;
67715;SDS011;54508;43.238;25.306;2023-09-19T11:30:45;1.77;;;1.50;;
67715;SDS011;54508;43.238;25.306;2023-09-19T11:33:28;1.88;;;1.50;;
67715;SDS011;54508;43.238;25.306;2023-09-19T11:36:10;1.98;;;1.35;;
67715;SDS011;54508;43.238;25.306;2023-09-19T11:43:46;1.65;;;1.55;;
67715;SDS011;54508;43.238;25.306;2023-09-19T11:46:12;4.57;;;1.85;;
67715;SDS011;54508;43.238;25.306;2023-09-19T11:48:49;8.35;;;2.22;;
67715;SDS011;54508;43.238;25.306;2023-09-19T11:53:52;9.15;;;2.22;;
67715;SDS011;54508;43.238;25.306;2023-09-19T11:56:19;11.93;;;2.30;;
67715;SDS011;54508;43.238;25.306;2023-09-19T11:58:48;3.35;;;1.80;;
67715;SDS011;54508;43.238;25.306;2023-09-19T12:01:16;4.78;;;1.95;;
67715;SDS011;54508;43.238;25.306;2023-09-19T12:03:47;4.50;;;1.75;;
67715;SDS011;54508;43.238;25.306;2023-09-19T12:06:18;5.38;;;1.83;;
67715;SDS011;54508;43.238;25.306;2023-09-19T12:08:43;8.35;;;1.80;;
67715;SDS011;54508;43.238;25.306;2023-09-19T12:11:12;11.85;;;1.90;;
67715;SDS011;54508;43.238;25.306;2023-09-19T12:13:45;8.65;;;2.20;;
67715;SDS011;54508;43.238;25.306;2023-09-19T12:16:17;4.55;;;1.60;;
67715;SDS011;54508;43.238;25.306;2023-09-19T12:18:48;5.40;;;1.95;;
67715;SDS011;54508;43.238;25.306;2023-09-19T12:21:53;2.13;;;1.55;;
67715;SDS011;54508;43.238;25.306;2023-09-19T12:24:07;5.65;;;1.75;;
67715;SDS011;54508;43.238;25.306;2023-09-19T12:26:42;4.75;;;1.50;;
67715;SDS011;54508;43.238;25.306;2023-09-19T12:29:12;2.35;;;1.60;;
67715;SDS011;54508;43.238;25.306;2023-09-19T12:31:52;6.55;;;2.03;;
67715;SDS011;54508;43.238;25.306;2023-09-19T12:34:31;5.78;;;1.70;;
67715;SDS011;54508;43.238;25.306;2023-09-19T12:37:13;3.33;;;1.60;;
67715;SDS011;54508;43.238;25.306;2023-09-19T12:40:02;8.25;;;2.40;;
67715;SDS011;54508;43.238;25.306;2023-09-19T12:42:39;4.90;;;1.85;;
67715;SDS011;54508;43.238;25.306;2023-09-19T12:45:06;5.13;;;2.05;;
67715;SDS011;54508;43.238;25.306;2023-09-19T12:47:34;3.88;;;2.13;;
67715;SDS011;54508;43.238;25.306;2023-09-19T12:52:39;3.70;;;1.75;;
67715;SDS011;54508;43.238;25.306;2023-09-19T12:55:18;1.83;;;1.60;;
67715;SDS011;54508;43.238;25.306;2023-09-19T12:57:59;3.83;;;1.80;;
67715;SDS011;54508;43.238;25.306;2023-09-19T13:00:44;3.67;;;1.67;;
67715;SDS011;54508;43.238;25.306;2023-09-19T13:05:54;3.70;;;1.70;;
67715;SDS011;54508;43.238;25.306;2023-09-19T13:11:01;4.10;;;2.10;;
67715;SDS011;54508;43.238;25.306;2023-09-19T13:25:07;2.30;;;1.80;;
67715;SDS011;54508;43.238;25.306;2023-09-19T13:27:43;3.17;;;1.60;;
67715;SDS011;54508;43.238;25.306;2023-09-19T13:30:10;3.05;;;1.65;;
67715;SDS011;54508;43.238;25.306;2023-09-19T13:32:36;2.15;;;1.58;;
67715;SDS011;54508;43.238;25.306;2023-09-19T13:35:05;2.58;;;1.67;;
67715;SDS011;54508;43.238;25.306;2023-09-19T13:37:33;7.68;;;2.30;;
67715;SDS011;54508;43.238;25.306;2023-09-19T13:40:02;4.38;;;2.00;;
67715;SDS011;54508;43.238;25.306;2023-09-19T13:42:30;4.47;;;2.03;;
67715;SDS011;54508;43.238;25.306;2023-09-19T13:44:56;5.55;;;1.88;;
67715;SDS011;54508;43.238;25.306;2023-09-19T13:47:21;4.93;;;2.40;;
67715;SDS011;54508;43.238;25.306;2023-09-19T13:49:49;2.67;;;1.80;;
67715;SDS011;54508;43.238;25.306;2023-09-19T13:52:21;4.20;;;1.60;;
67715;SDS011;54508;43.238;25.306;2023-09-19T13:54:48;4.32;;;1.67;;
67715;SDS011;54508;43.238;25.306;2023-09-19T13:57:15;3.78;;;1.70;;
67715;SDS011;54508;43.238;25.306;2023-09-19T13:59:41;4.05;;;1.83;;
67715;SDS011;54508;43.238;25.306;2023-09-19T14:02:07;4.75;;;2.38;;
67715;SDS011;54508;43.238;25.306;2023-09-19T14:04:33;4.37;;;2.00;;
67715;SDS011;54508;43.238;25.306;2023-09-19T14:07:02;2.83;;;1.95;;
67715;SDS011;54508;43.238;25.306;2023-09-19T14:09:28;2.95;;;1.92;;
67715;SDS011;54508;43.238;25.306;2023-09-19T14:11:54;10.10;;;2.20;;
67715;SDS011;54508;43.238;25.306;2023-09-19T14:14:19;29.08;;;3.00;;
67715;SDS011;54508;43.238;25.306;2023-09-19T14:16:45;275.02;;;21.25;;
67715;SDS011;54508;43.238;25.306;2023-09-19T14:19:12;168.73;;;12.48;;
67715;SDS011;54508;43.238;25.306;2023-09-19T14:21:39;214.13;;;14.33;;
67715;SDS011;54508;43.238;25.306;2023-09-19T14:24:04;124.00;;;10.15;;
67715;SDS011;54508;43.238;25.306;2023-09-19T14:26:34;98.50;;;8.20;;
67715;SDS011;54508;43.238;25.306;2023-09-19T14:29:02;54.23;;;7.07;;
67715;SDS011;54508;43.238;25.306;2023-09-19T14:31:28;51.95;;;6.18;;
67715;SDS011;54508;43.238;25.306;2023-09-19T14:33:54;43.80;;;5.37;;
67715;SDS011;54508;43.238;25.306;2023-09-19T14:36:21;38.28;;;4.95;;
67715;SDS011;54508;43.238;25.306;2023-09-19T14:38:47;32.50;;;5.88;;
67715;SDS011;54508;43.238;25.306;2023-09-19T14:41:12;26.63;;;5.10;;
67715;SDS011;54508;43.238;25.306;2023-09-19T14:43:38;29.40;;;4.90;;
67715;SDS011;54508;43.238;25.306;2023-09-19T14:46:04;22.42;;;4.68;;
67715;SDS011;54508;43.238;25.306;2023-09-19T14:48:33;19.80;;;4.00;;
67715;SDS011;54508;43.238;25.306;2023-09-19T14:51:08;18.15;;;4.10;;
67715;SDS011;54508;43.238;25.306;2023-09-19T14:53:34;16.75;;;3.58;;
67715;SDS011;54508;43.238;25.306;2023-09-19T14:56:01;15.57;;;3.55;;
67715;SDS011;54508;43.238;25.306;2023-09-19T14:58:30;11.40;;;3.73;;
67715;SDS011;54508;43.238;25.306;2023-09-19T15:03:28;17.77;;;3.75;;
67715;SDS011;54508;43.238;25.306;2023-09-19T15:06:05;13.20;;;3.33;;
67715;SDS011;54508;43.238;25.306;2023-09-19T15:08:32;12.93;;;3.47;;
67715;SDS011;54508;43.238;25.306;2023-09-19T15:10:59;7.27;;;2.57;;
67715;SDS011;54508;43.238;25.306;2023-09-19T15:13:32;11.65;;;2.80;;
67715;SDS011;54508;43.238;25.306;2023-09-19T15:16:01;8.25;;;2.70;;
67715;SDS011;54508;43.238;25.306;2023-09-19T15:18:33;10.95;;;2.55;;
67715;SDS011;54508;43.238;25.306;2023-09-19T15:21:03;6.87;;;2.97;;
67715;SDS011;54508;43.238;25.306;2023-09-19T15:23:29;11.88;;;2.70;;
67715;SDS011;54508;43.238;25.306;2023-09-19T15:25:57;9.73;;;2.72;;
67715;SDS011;54508;43.238;25.306;2023-09-19T15:28:23;13.80;;;2.57;;
67715;SDS011;54508;43.238;25.306;2023-09-19T15:30:57;6.18;;;2.72;;
67715;SDS011;54508;43.238;25.306;2023-09-19T15:33:29;6.50;;;2.10;;
67715;SDS011;54508;43.238;25.306;2023-09-19T15:36:11;5.10;;;2.30;;
67715;SDS011;54508;43.238;25.306;2023-09-19T15:41:38;6.40;;;2.50;;
67715;SDS011;54508;43.238;25.306;2023-09-19T15:44:10;9.70;;;2.20;;
67715;SDS011;54508;43.238;25.306;2023-09-19T15:46:39;7.25;;;2.42;;